Time;durP1;ratioP1;P1;durP2;ratioP2;P2;SDS_P1;SDS_P2;PMS_P1;PMS_P2;Temp;Humidity;BMP_temperature;BMP_pressure;BME280_temperature;BME280_humidity;BME280_pressure;Samples;Min_cycle;Max_cycle;Signal;HPM_P1;HPM_P2
2022/04/03 00:00:21;;;;;;;16.80;15.53;;;2.40;99.90;;;;;;5098361;28;20479;-87
2022/04/03 00:02:46;;;;;;;16.08;14.88;;;2.40;99.90;;;;;;5097212;28;20443;-86
2022/04/03 00:05:12;;;;;;;17.35;15.85;;;2.50;99.90;;;;;;5115628;28;20442;-87
2022/04/03 00:07:38;;;;;;;17.37;15.97;;;1.90;99.90;;;;;;5097006;28;20461;-87
2022/04/03 00:10:04;;;;;;;17.87;16.47;;;2.80;99.90;;;;;;5097250;28;20824;-86
2022/04/03 00:12:30;;;;;;;17.30;16.00;;;1.90;99.90;;;;;;5098040;28;20380;-86
2022/04/03 00:14:56;;;;;;;18.60;17.00;;;2.00;99.90;;;;;;5097469;28;20385;-87
2022/04/03 00:17:21;;;;;;;16.40;15.10;;;1.90;99.90;;;;;;5097884;28;20936;-86
2022/04/03 00:19:47;;;;;;;16.83;15.43;;;2.20;99.90;;;;;;5097841;28;20399;-86
2022/04/03 00:22:13;;;;;;;16.88;15.55;;;2.30;99.90;;;;;;5098315;28;20513;-87
2022/04/03 00:24:39;;;;;;;17.67;16.27;;;2.50;99.90;;;;;;5097378;28;20400;-87
2022/04/03 00:27:05;;;;;;;18.50;16.95;;;2.40;99.90;;;;;;5097346;28;20387;-87
2022/04/03 00:29:31;;;;;;;18.65;17.10;;;2.30;99.90;;;;;;5127028;28;20783;-86
2022/04/03 00:31:57;;;;;;;17.58;16.15;;;2.50;99.90;;;;;;5099690;28;20381;-87
2022/04/03 00:34:24;;;;;;;17.90;16.40;;;2.60;99.90;;;;;;5085876;28;20905;-86
2022/04/03 00:36:49;;;;;;;17.30;15.90;;;3.50;99.90;;;;;;5097071;28;20388;-87
2022/04/03 00:39:15;;;;;;;19.23;17.63;;;2.40;99.90;;;;;;5115725;28;20466;-86
2022/04/03 00:41:41;;;;;;;18.45;16.83;;;2.50;99.90;;;;;;5079971;28;20789;-87
2022/04/03 00:44:07;;;;;;;16.55;15.25;;;2.60;99.90;;;;;;5097028;28;20404;-86
2022/04/03 00:46:36;;;;;;;16.97;15.57;;;2.60;99.90;;;;;;5116158;28;20368;-86
2022/04/03 00:49:02;;;;;;;16.43;15.23;;;2.70;99.90;;;;;;5117356;28;20394;-86
2022/04/03 00:51:28;;;;;;;15.98;14.77;;;2.60;99.90;;;;;;5101980;28;20384;-86
2022/04/03 00:53:54;;;;;;;16.87;15.57;;;2.70;99.90;;;;;;5138488;27;20398;-87
2022/04/03 00:56:20;;;;;;;17.00;15.70;;;2.70;99.90;;;;;;5111397;27;20382;-87
2022/04/03 00:58:48;;;;;;;16.50;15.20;;;2.60;99.90;;;;;;5132648;27;20405;-86
2022/04/03 01:01:13;;;;;;;17.90;16.40;;;2.50;99.90;;;;;;5088666;28;20882;-87
2022/04/03 01:03:39;;;;;;;16.48;15.27;;;2.50;99.90;;;;;;5116189;28;20453;-86
2022/04/03 01:06:05;;;;;;;15.93;14.73;;;2.70;99.90;;;;;;5096085;28;20437;-86
2022/04/03 01:08:32;;;;;;;17.17;15.77;;;2.60;99.90;;;;;;5120636;28;20459;-86
2022/04/03 01:10:58;;;;;;;16.42;15.20;;;2.50;99.90;;;;;;5133236;27;20387;-87
2022/04/03 01:13:25;;;;;;;17.42;16.05;;;2.50;99.90;;;;;;5103304;28;20380;-87
2022/04/03 01:16:00;;;;;;;17.70;16.30;;;2.50;99.90;;;;;;5119740;28;20384;-86
2022/04/03 01:18:27;;;;;;;17.20;15.80;;;2.70;99.90;;;;;;5101107;28;20869;-87
2022/04/03 01:20:53;;;;;;;16.98;15.57;;;2.60;99.90;;;;;;5130613;27;20386;-86
2022/04/03 01:23:25;;;;;;;17.50;16.13;;;2.50;99.90;;;;;;5105135;28;20453;-86
2022/04/03 01:25:51;;;;;;;17.35;15.93;;;2.40;99.90;;;;;;5128667;27;20411;-86
2022/04/03 01:28:16;;;;;;;17.27;15.98;;;2.30;99.90;;;;;;5105954;28;20720;-86
2022/04/03 01:30:42;;;;;;;18.05;16.65;;;2.40;99.90;;;;;;5100878;28;20403;-86
2022/04/03 01:33:08;;;;;;;16.25;15.05;;;2.40;99.90;;;;;;5098914;28;20880;-86
2022/04/03 01:35:33;;;;;;;17.83;16.40;;;2.40;99.90;;;;;;5099492;28;20537;-86
2022/04/03 01:37:59;;;;;;;16.67;15.37;;;3.30;99.90;;;;;;5100829;28;20388;-87
2022/04/03 01:40:25;;;;;;;18.33;16.90;;;2.50;99.90;;;;;;5118554;28;20388;-86
2022/04/03 01:42:51;;;;;;;16.98;15.68;;;2.40;99.90;;;;;;5100319;28;20511;-86
2022/04/03 01:45:17;;;;;;;18.38;16.88;;;2.50;99.90;;;;;;5114647;27;20452;-86
2022/04/03 01:47:42;;;;;;;17.90;16.35;;;2.50;99.90;;;;;;5100232;28;20783;-86
2022/04/03 01:50:08;;;;;;;17.00;15.70;;;2.50;99.90;;;;;;5115489;28;20369;-86
2022/04/03 01:52:34;;;;;;;17.23;15.82;;;2.60;99.90;;;;;;5094566;28;20381;-86
2022/04/03 01:55:00;;;;;;;15.75;14.55;;;2.60;99.90;;;;;;5117427;28;20415;-86
2022/04/03 01:57:26;;;;;;;16.67;15.38;;;2.60;99.90;;;;;;5098682;28;20395;-86
2022/04/03 01:59:52;;;;;;;16.45;15.18;;;2.40;99.90;;;;;;5099014;28;20448;-86
2022/04/03 02:02:18;;;;;;;16.83;15.60;;;2.50;99.90;;;;;;5128088;27;20387;-86
2022/04/03 02:04:45;;;;;;;17.27;15.80;;;2.30;99.90;;;;;;5102604;28;20376;-86
2022/04/03 02:07:12;;;;;;;17.23;15.90;;;2.50;99.90;;;;;;5099248;28;20755;-86
2022/04/03 02:09:38;;;;;;;16.02;14.82;;;2.60;99.90;;;;;;5116933;27;20398;-86
2022/04/03 02:12:05;;;;;;;15.77;14.48;;;2.50;99.90;;;;;;5101602;27;20856;-86
2022/04/03 02:14:31;;;;;;;16.98;15.57;;;2.50;99.90;;;;;;5109051;28;20391;-86
2022/04/03 02:16:57;;;;;;;16.27;15.10;;;2.60;99.90;;;;;;5096528;28;20376;-86
2022/04/03 02:19:24;;;;;;;16.02;14.82;;;2.50;99.90;;;;;;5097537;28;20385;-87
2022/04/03 02:21:49;;;;;;;15.47;14.37;;;2.50;99.90;;;;;;5115611;28;20372;-86
2022/04/03 02:24:15;;;;;;;15.77;14.57;;;3.10;99.90;;;;;;5115547;28;20411;-86
2022/04/03 02:26:42;;;;;;;15.65;14.45;;;2.50;99.90;;;;;;5097635;28;20381;-87
2022/04/03 02:29:07;;;;;;;15.95;14.73;;;2.40;99.90;;;;;;5112305;28;20420;-87
2022/04/03 02:31:34;;;;;;;15.57;14.38;;;2.40;99.90;;;;;;5096693;28;20925;-86
2022/04/03 02:33:59;;;;;;;15.07;13.98;;;2.40;99.90;;;;;;5121254;27;20449;-86
2022/04/03 02:36:25;;;;;;;14.82;13.63;;;2.50;99.90;;;;;;5104653;28;20388;-86
2022/04/03 02:38:51;;;;;;;15.45;14.15;;;3.00;99.90;;;;;;5099202;28;20399;-86
2022/04/03 02:41:17;;;;;;;15.05;13.93;;;2.40;99.90;;;;;;5118301;28;20388;-86
2022/04/03 02:43:43;;;;;;;15.30;14.20;;;2.40;99.90;;;;;;5118876;28;20404;-86
2022/04/03 02:46:08;;;;;;;14.00;12.98;;;2.30;99.90;;;;;;5117139;28;20459;-86
2022/04/03 02:48:34;;;;;;;15.25;14.05;;;2.40;99.90;;;;;;5117917;28;20379;-86
2022/04/03 02:51:01;;;;;;;14.00;13.00;;;2.50;99.90;;;;;;5117880;28;20414;-86
2022/04/03 02:53:27;;;;;;;15.07;13.88;;;2.30;99.90;;;;;;5099168;28;20933;-86
2022/04/03 02:55:53;;;;;;;14.27;13.27;;;2.70;99.90;;;;;;5117296;28;20393;-86
2022/04/03 02:58:19;;;;;;;14.10;13.10;;;2.40;99.90;;;;;;5128228;27;20411;-86
2022/04/03 03:00:45;;;;;;;14.50;13.40;;;2.50;99.90;;;;;;5118710;27;20408;-86
2022/04/03 03:03:11;;;;;;;13.90;12.90;;;2.50;99.90;;;;;;5117244;28;20479;-86
2022/04/03 03:05:38;;;;;;;14.48;13.48;;;2.50;99.90;;;;;;5116788;28;20380;-86
2022/04/03 03:08:04;;;;;;;14.68;13.57;;;2.40;99.90;;;;;;5116367;28;20380;-87
2022/04/03 03:10:30;;;;;;;14.98;13.90;;;2.20;99.90;;;;;;5114517;28;20372;-86
2022/04/03 03:12:56;;;;;;;15.30;14.20;;;3.10;99.90;;;;;;5133603;28;20368;-87
2022/04/03 03:15:23;;;;;;;14.65;13.55;;;2.30;99.90;;;;;;5121735;28;20416;-86
2022/04/03 03:17:49;;;;;;;14.32;13.32;;;2.40;99.90;;;;;;5116477;28;20376;-86
2022/04/03 03:20:15;;;;;;;14.73;13.63;;;2.40;99.90;;;;;;5115246;28;20376;-87
2022/04/03 03:22:41;;;;;;;14.00;12.90;;;2.30;99.90;;;;;;5097219;28;20495;-87
2022/04/03 03:25:08;;;;;;;14.52;13.52;;;2.30;99.90;;;;;;5115784;28;20426;-87
2022/04/03 03:27:35;;;;;;;13.70;12.80;;;2.40;99.90;;;;;;5115492;28;20407;-87
2022/04/03 03:30:01;;;;;;;13.43;12.43;;;3.00;99.90;;;;;;5115487;28;20459;-86
2022/04/03 03:32:26;;;;;;;13.90;12.90;;;3.20;99.90;;;;;;5113505;28;20798;-85
2022/04/03 03:34:54;;;;;;;12.40;11.60;;;2.40;99.90;;;;;;5108634;28;20383;-86
2022/04/03 03:37:20;;;;;;;13.57;12.57;;;2.50;99.90;;;;;;5115493;28;20406;-86
2022/04/03 03:39:46;;;;;;;12.38;11.57;;;2.50;99.90;;;;;;5096923;28;20384;-87
2022/04/03 03:42:12;;;;;;;12.90;11.90;;;2.50;99.90;;;;;;5114908;28;20382;-86
2022/04/03 03:44:39;;;;;;;12.55;11.65;;;2.50;99.90;;;;;;5115036;28;20790;-86
2022/04/03 03:47:05;;;;;;;12.80;11.90;;;2.50;99.90;;;;;;5113278;27;20455;-87
2022/04/03 03:49:31;;;;;;;12.32;11.52;;;2.60;99.90;;;;;;5106787;27;20396;-86
2022/04/03 03:51:57;;;;;;;13.10;12.20;;;2.50;99.90;;;;;;5086492;28;20380;-87
2022/04/03 03:54:22;;;;;;;12.77;11.88;;;2.50;99.90;;;;;;5094945;28;20429;-86
2022/04/03 03:56:48;;;;;;;12.77;11.90;;;2.60;99.90;;;;;;5094744;28;20389;-86
2022/04/03 03:59:14;;;;;;;12.38;11.50;;;2.60;99.90;;;;;;5094637;28;20434;-86
2022/04/03 04:01:41;;;;;;;13.23;12.23;;;2.50;99.90;;;;;;5112331;28;20803;-87
2022/04/03 04:04:06;;;;;;;12.97;12.07;;;2.90;99.90;;;;;;5093698;28;20541;-86
2022/04/03 04:06:32;;;;;;;12.70;11.83;;;2.50;99.90;;;;;;5110898;28;20388;-86
2022/04/03 04:08:58;;;;;;;11.27;10.48;;;2.60;99.90;;;;;;5116475;28;20434;-86
2022/04/03 04:11:24;;;;;;;11.93;11.13;;;3.70;99.90;;;;;;5112734;28;20441;-87
2022/04/03 04:13:50;;;;;;;11.87;10.97;;;2.60;99.90;;;;;;5094934;28;20388;-86
2022/04/03 04:16:15;;;;;;;11.85;11.05;;;2.50;99.90;;;;;;5095803;28;20391;-87
2022/04/03 04:18:42;;;;;;;11.60;10.80;;;2.50;99.90;;;;;;5114910;28;20383;-87
2022/04/03 04:21:10;;;;;;;11.02;10.23;;;2.50;99.90;;;;;;5096951;28;20867;-87
2022/04/03 04:23:36;;;;;;;12.32;11.45;;;2.80;99.90;;;;;;5099026;28;20434;-87
2022/04/03 04:26:02;;;;;;;10.93;10.13;;;3.10;99.90;;;;;;5119381;28;20459;-86
2022/04/03 04:28:28;;;;;;;10.82;10.02;;;1.60;99.90;;;;;;5103618;28;20388;-87
2022/04/03 04:30:56;;;;;;;10.95;10.10;;;2.60;99.90;;;;;;5120423;28;20388;-87
2022/04/03 04:33:22;;;;;;;11.00;10.20;;;2.60;99.90;;;;;;5121074;28;20408;-87
2022/04/03 04:35:51;;;;;;;10.63;9.93;;;2.70;99.90;;;;;;5101632;28;20712;-87
2022/04/03 04:38:17;;;;;;;10.30;9.60;;;2.60;99.90;;;;;;5103332;28;20886;-86
2022/04/03 04:40:44;;;;;;;10.40;9.70;;;3.20;99.90;;;;;;5121730;28;20448;-87
2022/04/03 04:43:10;;;;;;;10.05;9.35;;;2.50;99.90;;;;;;5121330;28;20500;-87
2022/04/03 04:45:42;;;;;;;10.07;9.38;;;3.20;99.90;;;;;;5120705;28;20378;-87
2022/04/03 04:48:07;;;;;;;10.30;9.60;;;2.40;99.90;;;;;;5101951;28;20420;-87
2022/04/03 04:50:42;;;;;;;10.95;10.07;;;2.50;99.90;;;;;;5102937;28;20387;-86
2022/04/03 04:53:09;;;;;;;10.38;9.68;;;2.40;99.90;;;;;;5120122;28;20380;-87
2022/04/03 04:55:37;;;;;;;10.35;9.65;;;3.40;99.90;;;;;;5102916;28;20432;-86
2022/04/03 04:58:06;;;;;;;10.02;9.30;;;3.40;99.90;;;;;;5121079;27;20475;-86
2022/04/03 05:00:32;;;;;;;10.20;9.50;;;2.40;99.90;;;;;;5127750;27;20473;-86
2022/04/03 05:02:58;;;;;;;9.85;9.15;;;3.30;99.90;;;;;;5120581;28;20407;-87
2022/04/03 05:05:28;;;;;;;9.38;8.68;;;2.50;99.90;;;;;;5103139;28;20720;-87
2022/04/03 05:08:05;;;;;;;9.95;9.25;;;3.20;99.90;;;;;;5120900;28;20420;-87
2022/04/03 05:10:32;;;;;;;10.32;9.52;;;3.70;99.90;;;;;;5102727;28;20482;-87
2022/04/03 05:13:25;;;;;;;9.55;8.95;;;3.10;99.90;;;;;;5121361;28;20377;-87
2022/04/03 05:15:52;;;;;;;9.75;9.10;;;2.80;99.90;;;;;;5118961;28;20458;-87
2022/04/03 05:18:18;;;;;;;9.98;9.27;;;2.40;99.90;;;;;;5117557;28;20384;-86
2022/04/03 05:20:43;;;;;;;8.82;8.23;;;2.40;99.90;;;;;;5100118;28;20382;-86
2022/04/03 05:23:09;;;;;;;9.25;8.63;;;2.40;99.90;;;;;;5117730;28;20396;-86
2022/04/03 05:25:35;;;;;;;9.97;9.27;;;2.20;99.90;;;;;;5118260;28;20463;-86
2022/04/03 05:28:00;;;;;;;9.60;9.00;;;2.20;99.90;;;;;;5112016;28;20378;-86
2022/04/03 05:30:26;;;;;;;9.75;9.05;;;2.10;99.90;;;;;;5116952;28;20399;-87
2022/04/03 05:32:52;;;;;;;8.68;8.18;;;2.20;99.90;;;;;;5100001;28;20886;-87
2022/04/03 05:35:18;;;;;;;9.37;8.77;;;2.20;99.90;;;;;;5099726;28;20387;-86
2022/04/03 05:37:44;;;;;;;9.03;8.43;;;2.40;99.90;;;;;;5104279;28;20396;-87
2022/04/03 05:40:12;;;;;;;9.23;8.52;;;2.50;99.90;;;;;;5128937;28;20387;-87
2022/04/03 05:42:38;;;;;;;8.68;8.07;;;2.30;99.90;;;;;;5101194;28;20417;-87
2022/04/03 05:45:05;;;;;;;8.70;8.10;;;2.20;99.90;;;;;;5120193;28;20384;-86
2022/04/03 05:47:32;;;;;;;9.85;9.15;;;2.40;99.90;;;;;;5118261;28;20406;-86
2022/04/03 05:49:58;;;;;;;9.13;8.23;;;2.50;99.90;;;;;;5117548;28;20376;-86
2022/04/03 05:52:24;;;;;;;8.90;8.30;;;2.60;99.90;;;;;;5117653;28;20807;-86
2022/04/03 05:54:50;;;;;;;8.18;7.63;;;2.30;99.90;;;;;;5099704;28;20389;-87
2022/04/03 05:57:16;;;;;;;8.20;7.60;;;2.30;99.90;;;;;;5111118;28;20516;-86
2022/04/03 05:59:41;;;;;;;9.02;8.43;;;2.30;99.90;;;;;;5115662;28;20404;-87
2022/04/03 06:02:07;;;;;;;8.63;8.02;;;2.30;99.90;;;;;;5102046;27;20383;-86
2022/04/03 06:04:33;;;;;;;8.38;7.78;;;2.40;99.90;;;;;;5099198;28;20519;-86
2022/04/03 06:06:59;;;;;;;8.60;8.00;;;2.40;99.90;;;;;;5117242;28;20471;-87
2022/04/03 06:09:24;;;;;;;8.05;7.50;;;2.40;99.90;;;;;;5117868;28;20400;-86
2022/04/03 06:11:52;;;;;;;8.15;7.65;;;2.50;99.90;;;;;;5114744;28;20388;-86
2022/04/03 06:14:17;;;;;;;8.65;8.05;;;2.40;99.90;;;;;;5116385;28;20384;-87
2022/04/03 06:16:43;;;;;;;9.00;8.40;;;3.00;99.90;;;;;;5116426;28;20430;-87
2022/04/03 06:19:08;;;;;;;8.73;8.13;;;2.50;99.90;;;;;;5116516;28;20392;-86
2022/04/03 06:21:34;;;;;;;9.35;8.65;;;2.50;99.90;;;;;;5116616;28;20388;-87
2022/04/03 06:23:59;;;;;;;8.93;8.32;;;2.50;99.90;;;;;;5117472;28;20396;-86
2022/04/03 06:26:25;;;;;;;8.85;8.25;;;2.40;99.90;;;;;;5115913;28;20494;-87
2022/04/03 06:28:51;;;;;;;9.73;9.02;;;2.40;99.90;;;;;;5118340;28;20735;-86
2022/04/03 06:31:16;;;;;;;9.18;8.57;;;2.50;99.90;;;;;;5098608;28;20422;-86
2022/04/03 06:33:42;;;;;;;8.87;8.27;;;2.40;99.90;;;;;;5118813;27;20470;-87
2022/04/03 06:36:08;;;;;;;9.80;9.00;;;2.60;99.90;;;;;;5099051;28;20408;-87
2022/04/03 06:38:34;;;;;;;9.87;9.17;;;2.50;99.90;;;;;;5099043;28;20747;-87
2022/04/03 06:41:01;;;;;;;9.67;8.97;;;2.60;99.90;;;;;;5099071;28;20890;-87
2022/04/03 06:43:29;;;;;;;10.15;9.45;;;2.80;99.90;;;;;;5099476;28;20407;-87
2022/04/03 06:45:56;;;;;;;10.23;9.43;;;3.40;99.90;;;;;;5119264;28;20434;-86
2022/04/03 06:48:23;;;;;;;9.35;8.70;;;2.70;99.90;;;;;;5118012;28;20376;-86
2022/04/03 06:50:48;;;;;;;9.83;9.13;;;2.60;99.90;;;;;;5099454;28;20392;-86
2022/04/03 06:53:14;;;;;;;10.50;9.70;;;2.30;99.90;;;;;;5119122;28;20514;-87
2022/04/03 06:55:40;;;;;;;10.27;9.48;;;2.10;99.90;;;;;;5120116;28;20393;-87
2022/04/03 06:58:05;;;;;;;10.63;9.93;;;2.30;99.90;;;;;;5100965;28;20875;-87
2022/04/03 07:00:32;;;;;;;10.50;9.77;;;2.40;99.90;;;;;;5103502;28;20422;-88
2022/04/03 07:02:57;;;;;;;10.50;9.70;;;2.20;99.90;;;;;;5119137;28;20400;-87
2022/04/03 07:05:24;;;;;;;11.57;10.68;;;2.50;99.90;;;;;;5099476;28;20433;-88
2022/04/03 07:07:53;;;;;;;12.15;11.25;;;2.00;99.90;;;;;;5119185;28;20392;-87
2022/04/03 07:10:19;;;;;;;12.05;11.15;;;1.90;99.90;;;;;;5108299;28;20383;-88
2022/04/03 07:12:45;;;;;;;12.32;11.43;;;2.00;99.90;;;;;;5102341;28;20382;-88
2022/04/03 07:15:12;;;;;;;12.43;11.53;;;1.90;99.90;;;;;;5096756;28;20382;-88
2022/04/03 07:17:44;;;;;;;13.13;12.05;;;2.20;99.90;;;;;;5105128;28;20379;-89
2022/04/03 07:20:14;;;;;;;12.02;11.13;;;2.30;99.90;;;;;;5086351;28;21016;-88
2022/04/03 07:22:44;;;;;;;12.32;11.43;;;2.20;99.90;;;;;;5089580;28;20463;-88
2022/04/03 07:25:13;;;;;;;13.38;12.38;;;2.50;99.90;;;;;;5092486;28;20428;-88
2022/04/03 07:27:40;;;;;;;12.18;11.18;;;2.40;99.90;;;;;;5113952;28;20417;-88
2022/04/03 07:30:08;;;;;;;10.55;9.75;;;2.30;99.90;;;;;;5095958;28;20383;-88
2022/04/03 07:32:35;;;;;;;10.25;9.43;;;2.50;99.90;;;;;;5112466;28;20468;-88
2022/04/03 07:35:00;;;;;;;11.23;10.40;;;2.60;99.90;;;;;;5091608;28;20391;-88
2022/04/03 07:37:26;;;;;;;10.20;9.50;;;2.50;99.90;;;;;;5114330;28;20438;-88
2022/04/03 07:39:52;;;;;;;11.43;10.43;;;2.60;99.90;;;;;;5087487;28;20759;-89
2022/04/03 07:42:18;;;;;;;10.38;9.57;;;2.60;99.90;;;;;;5113293;28;20384;-89
2022/04/03 07:44:44;;;;;;;11.07;10.27;;;2.50;99.90;;;;;;5112300;28;20950;-89
2022/04/03 07:47:11;;;;;;;13.00;12.00;;;2.50;99.90;;;;;;5094557;28;20385;-88
2022/04/03 07:49:39;;;;;;;11.35;10.55;;;2.60;99.90;;;;;;5107457;28;20435;-88
2022/04/03 07:52:05;;;;;;;12.02;11.02;;;3.70;99.90;;;;;;5090489;28;20384;-89
2022/04/03 07:54:30;;;;;;;12.07;11.13;;;2.80;99.90;;;;;;5078639;28;20414;-89
2022/04/03 07:56:56;;;;;;;13.17;12.27;;;2.70;99.90;;;;;;5114011;28;20453;-89
2022/04/03 07:59:22;;;;;;;14.23;13.10;;;3.10;99.90;;;;;;5108723;28;20849;-88
2022/04/03 08:01:48;;;;;;;13.63;12.43;;;2.60;99.90;;;;;;5099572;28;20381;-87
2022/04/03 08:04:14;;;;;;;15.20;13.93;;;2.50;99.90;;;;;;5113647;28;20409;-88
2022/04/03 08:06:40;;;;;;;12.57;11.68;;;2.60;99.90;;;;;;5100436;28;20385;-89
2022/04/03 08:09:07;;;;;;;13.02;12.05;;;2.70;99.90;;;;;;5094069;28;20381;-89
2022/04/03 08:11:33;;;;;;;13.02;11.88;;;2.80;99.90;;;;;;5098600;28;20383;-88
2022/04/03 08:13:59;;;;;;;13.27;12.18;;;2.90;99.90;;;;;;5113925;28;20384;-89
2022/04/03 08:16:25;;;;;;;13.23;12.17;;;2.80;99.90;;;;;;5114357;28;20399;-89
2022/04/03 08:18:51;;;;;;;13.30;12.30;;;3.20;99.90;;;;;;5092813;28;20386;-89
2022/04/03 08:21:18;;;;;;;13.57;12.40;;;2.70;99.90;;;;;;5096841;28;20392;-89
2022/04/03 08:24:05;;;;;;;14.90;13.68;;;2.60;99.90;;;;;;5095531;28;20474;-89
2022/04/03 08:26:37;;;;;;;11.77;10.97;;;2.70;99.90;;;;;;5076483;28;20476;-89
2022/04/03 08:29:06;;;;;;;10.65;9.85;;;3.00;99.90;;;;;;5093103;28;20422;-87
2022/04/03 08:31:34;;;;;;;11.05;10.05;;;2.50;99.90;;;;;;5093141;28;20425;-88
2022/04/03 08:34:04;;;;;;;11.13;10.23;;;3.20;99.90;;;;;;5094227;28;20911;-89
2022/04/03 08:37:00;;;;;;;10.43;9.67;;;3.20;99.90;;;;;;5105542;28;20455;-89
2022/04/03 08:40:05;;;;;;;10.18;9.48;;;2.80;99.90;;;;;;5068203;28;20399;-89
2022/04/03 08:42:31;;;;;;;9.90;9.10;;;3.30;99.90;;;;;;5097745;28;21021;-88
2022/04/03 08:45:13;;;;;;;10.50;9.60;;;3.40;99.90;;;;;;5096805;28;20901;-88
2022/04/03 08:48:04;;;;;;;9.35;8.65;;;3.80;99.90;;;;;;5113609;28;20388;-88
2022/04/03 08:50:51;;;;;;;9.52;8.82;;;3.30;99.90;;;;;;5094719;28;20886;-89
2022/04/03 08:53:52;;;;;;;9.40;8.60;;;4.40;99.90;;;;;;5112857;28;20431;-88
2022/04/03 08:56:18;;;;;;;9.02;8.43;;;3.20;99.90;;;;;;5079272;28;20425;-88
2022/04/03 08:58:54;;;;;;;9.70;8.90;;;4.10;99.90;;;;;;5114004;28;20889;-88
2022/04/03 09:01:29;;;;;;;9.10;8.40;;;3.20;99.90;;;;;;5099199;28;20518;-88
2022/04/03 09:04:01;;;;;;;9.35;8.65;;;3.00;99.90;;;;;;5113301;28;20788;-88
2022/04/03 09:06:30;;;;;;;12.15;9.38;;;3.00;99.90;;;;;;5093977;28;20519;-88
2022/04/03 09:08:56;;;;;;;9.38;8.68;;;3.20;99.90;;;;;;5095545;28;20524;-88
2022/04/03 09:11:29;;;;;;;9.47;8.77;;;3.10;99.90;;;;;;5095602;28;20387;-88
2022/04/03 09:13:55;;;;;;;9.60;8.90;;;3.90;99.90;;;;;;5098032;28;20396;-88
2022/04/03 09:16:40;;;;;;;9.50;8.80;;;3.60;99.90;;;;;;5117650;28;20376;-89
2022/04/03 09:19:09;;;;;;;9.90;9.20;;;2.60;99.90;;;;;;5117106;28;20438;-88
2022/04/03 09:21:35;;;;;;;8.77;8.18;;;3.70;99.90;;;;;;5115094;28;20428;-88
2022/04/03 09:24:11;;;;;;;8.38;7.72;;;3.20;99.90;;;;;;5117256;28;20882;-88
2022/04/03 09:26:39;;;;;;;8.53;7.83;;;2.40;99.90;;;;;;5117817;28;20582;-88
2022/04/03 09:29:19;;;;;;;9.07;8.38;;;3.50;99.90;;;;;;5094430;28;20403;-88
2022/04/03 09:31:46;;;;;;;7.93;7.22;;;4.80;99.90;;;;;;5093695;28;20439;-88
2022/04/03 09:34:24;;;;;;;8.00;7.43;;;4.40;99.90;;;;;;5112985;28;20456;-87
2022/04/03 09:36:58;;;;;;;8.90;8.15;;;3.20;99.90;;;;;;5112810;28;20380;-87
2022/04/03 09:39:26;;;;;;;9.00;8.30;;;4.20;99.90;;;;;;5117881;28;20407;-88
2022/04/03 09:41:56;;;;;;;8.30;7.70;;;4.40;99.90;;;;;;5119960;28;20388;-88
2022/04/03 09:44:31;;;;;;;8.30;7.75;;;3.50;99.90;;;;;;5118255;28;20767;-87
2022/04/03 09:47:12;;;;;;;8.10;7.40;;;3.40;99.90;;;;;;5116642;28;20372;-89
2022/04/03 09:49:38;;;;;;;8.30;7.70;;;3.40;99.90;;;;;;5115639;28;20392;-88
2022/04/03 09:52:04;;;;;;;8.18;7.57;;;3.40;99.90;;;;;;5098592;28;20384;-88
2022/04/03 09:54:30;;;;;;;8.50;7.80;;;3.30;99.90;;;;;;5115085;28;20384;-88
2022/04/03 09:56:56;;;;;;;7.60;7.00;;;3.40;99.90;;;;;;5115198;28;20380;-88
2022/04/03 09:59:22;;;;;;;7.53;6.93;;;3.60;99.90;;;;;;5104556;28;20913;-88
2022/04/03 10:01:56;;;;;;;8.00;7.40;;;3.70;99.90;;;;;;5098689;28;20395;-88
2022/04/03 10:04:23;;;;;;;8.27;7.70;;;4.00;99.90;;;;;;5116531;28;20499;-88
2022/04/03 10:06:51;;;;;;;7.82;6.97;;;3.90;99.90;;;;;;5098649;28;20383;-87
2022/04/03 10:09:17;;;;;;;7.13;6.63;;;4.50;99.90;;;;;;5094220;28;20379;-87
2022/04/03 10:11:43;;;;;;;8.23;7.63;;;3.90;99.90;;;;;;5108740;27;20403;-88
2022/04/03 10:14:10;;;;;;;7.90;7.30;;;3.80;99.90;;;;;;5119594;27;20387;-88
2022/04/03 10:16:35;;;;;;;7.78;7.18;;;4.60;99.90;;;;;;5100277;28;20388;-87
2022/04/03 10:19:02;;;;;;;7.70;7.10;;;3.60;99.90;;;;;;5094825;28;20745;-86
2022/04/03 10:21:39;;;;;;;8.25;7.65;;;3.50;99.90;;;;;;5097263;28;20391;-87
2022/04/03 10:24:19;;;;;;;7.60;7.10;;;3.60;99.90;;;;;;5104195;28;20542;-87
2022/04/03 10:27:06;;;;;;;8.40;7.70;;;3.70;99.90;;;;;;5117523;27;20587;-87
2022/04/03 10:29:36;;;;;;;8.70;8.00;;;3.70;99.90;;;;;;5099555;27;20437;-87
2022/04/03 10:32:06;;;;;;;9.35;8.63;;;3.80;99.90;;;;;;5096141;28;20475;-87
2022/04/03 10:34:45;;;;;;;8.87;8.07;;;3.70;99.90;;;;;;5116164;28;20452;-87
2022/04/03 10:37:30;;;;;;;8.73;8.02;;;3.80;99.90;;;;;;5116199;28;20436;-87
2022/04/03 10:40:02;;;;;;;8.82;8.20;;;3.70;99.90;;;;;;5097553;28;20437;-87
2022/04/03 10:42:29;;;;;;;8.88;8.07;;;3.50;99.90;;;;;;5118162;28;20427;-87
2022/04/03 10:45:13;;;;;;;8.75;7.90;;;3.50;99.90;;;;;;5116517;28;20396;-86
2022/04/03 10:47:43;;;;;;;7.80;7.20;;;3.50;99.90;;;;;;5114800;28;20392;-87
2022/04/03 10:50:10;;;;;;;7.97;7.38;;;3.50;99.90;;;;;;5096260;28;20515;-86
2022/04/03 10:52:39;;;;;;;9.02;8.32;;;3.50;99.90;;;;;;5114775;28;20384;-87
2022/04/03 10:55:20;;;;;;;8.48;7.88;;;3.50;99.90;;;;;;5115078;28;20779;-86
2022/04/03 10:57:52;;;;;;;8.55;7.85;;;3.50;99.90;;;;;;5120114;27;20425;-87
2022/04/03 11:00:17;;;;;;;9.30;8.60;;;3.40;99.90;;;;;;5114674;28;20453;-87
2022/04/03 11:02:51;;;;;;;8.93;8.33;;;3.30;99.90;;;;;;5118021;28;20382;-87
2022/04/03 11:05:32;;;;;;;9.07;8.27;;;3.40;99.90;;;;;;5098757;28;20434;-86
2022/04/03 11:08:00;;;;;;;8.40;7.88;;;3.60;99.90;;;;;;5115102;28;20376;-87
2022/04/03 11:10:55;;;;;;;9.50;8.80;;;4.20;99.90;;;;;;5112029;28;20789;-87
2022/04/03 11:13:38;;;;;;;8.63;8.02;;;3.80;99.90;;;;;;5096692;28;20955;-87
2022/04/03 11:16:12;;;;;;;9.18;8.52;;;4.10;99.90;;;;;;5115464;28;20483;-86
2022/04/03 11:18:50;;;;;;;8.27;7.68;;;4.00;99.90;;;;;;5116532;28;20849;-86
2022/04/03 11:21:24;;;;;;;8.77;8.18;;;3.70;99.90;;;;;;5131585;28;20373;-86
2022/04/03 11:24:00;;;;;;;8.75;8.13;;;3.80;99.90;;;;;;5130661;28;21038;-86
2022/04/03 11:26:26;;;;;;;8.50;7.90;;;3.80;99.90;;;;;;5110309;28;20389;-86
2022/04/03 11:28:52;;;;;;;8.50;7.90;;;4.90;99.90;;;;;;5116289;28;20412;-86
2022/04/03 11:31:18;;;;;;;9.23;8.57;;;3.70;99.90;;;;;;5114509;28;20389;-87
2022/04/03 11:33:46;;;;;;;8.45;7.85;;;3.80;99.90;;;;;;5096155;28;20426;-86
2022/04/03 11:36:14;;;;;;;8.63;8.02;;;3.90;99.90;;;;;;5095294;28;20480;-86
2022/04/03 11:38:51;;;;;;;7.40;6.88;;;3.90;99.90;;;;;;5113966;28;20442;-86
2022/04/03 11:41:20;;;;;;;8.25;7.65;;;3.90;99.90;;;;;;5115146;28;20380;-86
2022/04/03 11:44:00;;;;;;;7.97;7.37;;;3.80;99.90;;;;;;5113748;28;20862;-86
2022/04/03 11:46:29;;;;;;;9.25;8.48;;;3.70;99.90;;;;;;5114284;28;20530;-86
2022/04/03 11:48:56;;;;;;;9.48;8.77;;;3.60;99.90;;;;;;5123463;28;20429;-86
2022/04/03 11:51:22;;;;;;;8.93;8.23;;;4.50;99.90;;;;;;5130473;28;20412;-87
2022/04/03 11:53:59;;;;;;;9.00;8.40;;;3.60;99.90;;;;;;5111355;28;20408;-86
2022/04/03 11:56:29;;;;;;;8.95;8.35;;;3.60;99.90;;;;;;5116894;28;20430;-86
2022/04/03 11:58:56;;;;;;;10.07;9.38;;;3.60;99.90;;;;;;5116626;28;20376;-86
2022/04/03 12:01:34;;;;;;;9.02;8.23;;;3.80;99.90;;;;;;5118374;28;20381;-86
2022/04/03 12:04:10;;;;;;;8.50;7.80;;;3.50;99.90;;;;;;5095695;28;20432;-87
2022/04/03 12:06:37;;;;;;;7.95;7.35;;;3.30;99.90;;;;;;5093687;28;20399;-86
2022/04/03 12:09:08;;;;;;;8.40;7.70;;;4.20;99.90;;;;;;5110626;28;20456;-86
2022/04/03 12:11:35;;;;;;;7.10;6.60;;;3.20;99.90;;;;;;5115572;28;20421;-87
2022/04/03 12:14:02;;;;;;;6.63;6.13;;;3.10;99.90;;;;;;5115497;28;20398;-87
2022/04/03 12:16:28;;;;;;;6.78;6.13;;;2.80;99.90;;;;;;5097697;28;20484;-87
2022/04/03 12:18:54;;;;;;;7.20;6.60;;;2.60;99.90;;;;;;5113893;28;20409;-87
2022/04/03 12:21:22;;;;;;;7.75;7.13;;;2.70;99.90;;;;;;5115212;28;20384;-87
2022/04/03 12:24:07;;;;;;;7.57;6.88;;;2.70;99.90;;;;;;5078650;28;20949;-87
2022/04/03 12:26:34;;;;;;;7.75;7.15;;;2.40;99.90;;;;;;5115453;28;20516;-86
2022/04/03 12:29:01;;;;;;;7.20;6.60;;;2.70;99.90;;;;;;5116172;28;20376;-87
2022/04/03 12:31:31;;;;;;;7.00;6.50;;;2.80;99.90;;;;;;5115545;28;20376;-87
2022/04/03 12:34:24;;;;;;;7.53;6.93;;;3.00;99.90;;;;;;5095484;28;20792;-87
2022/04/03 12:36:52;;;;;;;7.63;7.00;;;2.80;99.90;;;;;;5109294;28;20793;-87
2022/04/03 12:39:38;;;;;;;6.87;6.27;;;2.90;99.90;;;;;;5112995;28;20508;-87
2022/04/03 12:42:40;;;;;;;6.57;6.07;;;3.00;99.90;;;;;;5113398;28;20390;-88
2022/04/03 12:45:06;;;;;;;7.07;6.40;;;3.20;99.90;;;;;;5113464;28;20701;-87
2022/04/03 12:48:00;;;;;;;6.60;6.10;;;3.20;99.90;;;;;;5113419;28;20739;-86
2022/04/03 12:50:40;;;;;;;5.67;5.17;;;3.20;99.90;;;;;;5117538;28;20384;-86
2022/04/03 12:53:11;;;;;;;6.22;5.65;;;3.00;99.90;;;;;;5117477;28;20468;-86